sensor_id;sensor_type;location;lat;lon;timestamp;temperature;humidity
16305;DHT22;8261;47.678;-122.174;2023-04-22T00:00:42;12.20;99.90
16305;DHT22;8261;47.678;-122.174;2023-04-22T00:03:13;12.10;99.90
16305;DHT22;8261;47.678;-122.174;2023-04-22T00:05:45;12.00;99.90
16305;DHT22;8261;47.678;-122.174;2023-04-22T00:08:19;11.90;99.90
16305;DHT22;8261;47.678;-122.174;2023-04-22T00:10:50;11.90;99.90
16305;DHT22;8261;47.678;-122.174;2023-04-22T00:13:21;12.00;99.90
16305;DHT22;8261;47.678;-122.174;2023-04-22T00:15:52;11.90;99.90
16305;DHT22;8261;47.678;-122.174;2023-04-22T00:18:23;11.70;99.90
16305;DHT22;8261;47.678;-122.174;2023-04-22T00:20:55;11.80;99.90
16305;DHT22;8261;47.678;-122.174;2023-04-22T00:23:29;11.60;99.90
16305;DHT22;8261;47.678;-122.174;2023-04-22T00:26:02;11.70;99.90
16305;DHT22;8261;47.678;-122.174;2023-04-22T00:28:33;11.80;99.90
16305;DHT22;8261;47.678;-122.174;2023-04-22T00:31:07;12.20;99.90
16305;DHT22;8261;47.678;-122.174;2023-04-22T00:33:45;12.50;99.90
16305;DHT22;8261;47.678;-122.174;2023-04-22T00:36:17;12.60;99.90
16305;DHT22;8261;47.678;-122.174;2023-04-22T00:38:50;12.60;99.90
16305;DHT22;8261;47.678;-122.174;2023-04-22T00:41:22;12.60;99.90
16305;DHT22;8261;47.678;-122.174;2023-04-22T00:43:54;12.50;99.90
16305;DHT22;8261;47.678;-122.174;2023-04-22T00:46:26;12.10;99.90
16305;DHT22;8261;47.678;-122.174;2023-04-22T00:48:57;12.00;99.90
16305;DHT22;8261;47.678;-122.174;2023-04-22T00:51:28;12.00;99.90
16305;DHT22;8261;47.678;-122.174;2023-04-22T00:54:02;12.10;99.90
16305;DHT22;8261;47.678;-122.174;2023-04-22T00:56:34;12.00;99.90
16305;DHT22;8261;47.678;-122.174;2023-04-22T00:59:08;12.10;99.90
16305;DHT22;8261;47.678;-122.174;2023-04-22T01:01:40;12.30;99.90
16305;DHT22;8261;47.678;-122.174;2023-04-22T01:04:12;12.40;99.90
16305;DHT22;8261;47.678;-122.174;2023-04-22T01:06:44;12.30;99.90
16305;DHT22;8261;47.678;-122.174;2023-04-22T01:09:18;12.20;99.90
16305;DHT22;8261;47.678;-122.174;2023-04-22T01:11:50;12.30;99.90
16305;DHT22;8261;47.678;-122.174;2023-04-22T01:14:23;12.20;99.90
16305;DHT22;8261;47.678;-122.174;2023-04-22T01:16:56;12.20;99.90
16305;DHT22;8261;47.678;-122.174;2023-04-22T01:19:27;12.10;99.90
16305;DHT22;8261;47.678;-122.174;2023-04-22T01:22:01;11.90;99.90
16305;DHT22;8261;47.678;-122.174;2023-04-22T01:24:35;11.60;99.90
16305;DHT22;8261;47.678;-122.174;2023-04-22T01:27:06;11.50;99.90
16305;DHT22;8261;47.678;-122.174;2023-04-22T01:29:38;11.50;99.90
16305;DHT22;8261;47.678;-122.174;2023-04-22T01:32:09;11.40;99.90
16305;DHT22;8261;47.678;-122.174;2023-04-22T01:34:41;11.40;99.90
16305;DHT22;8261;47.678;-122.174;2023-04-22T01:37:12;11.40;99.90
16305;DHT22;8261;47.678;-122.174;2023-04-22T01:39:46;11.30;99.90
16305;DHT22;8261;47.678;-122.174;2023-04-22T01:42:17;11.30;99.90
16305;DHT22;8261;47.678;-122.174;2023-04-22T01:44:49;11.30;99.90
16305;DHT22;8261;47.678;-122.174;2023-04-22T01:47:20;11.40;99.90
16305;DHT22;8261;47.678;-122.174;2023-04-22T01:49:51;11.20;99.90
16305;DHT22;8261;47.678;-122.174;2023-04-22T01:52:22;11.20;99.90
16305;DHT22;8261;47.678;-122.174;2023-04-22T01:54:55;11.20;99.90
16305;DHT22;8261;47.678;-122.174;2023-04-22T01:57:27;11.10;99.90
16305;DHT22;8261;47.678;-122.174;2023-04-22T01:59:59;11.00;99.90
16305;DHT22;8261;47.678;-122.174;2023-04-22T02:02:31;11.00;99.90
16305;DHT22;8261;47.678;-122.174;2023-04-22T02:05:03;10.90;99.90
16305;DHT22;8261;47.678;-122.174;2023-04-22T02:07:35;10.90;99.90
16305;DHT22;8261;47.678;-122.174;2023-04-22T02:10:09;11.00;99.90
16305;DHT22;8261;47.678;-122.174;2023-04-22T02:12:41;11.10;99.90
16305;DHT22;8261;47.678;-122.174;2023-04-22T02:15:14;11.00;99.90
16305;DHT22;8261;47.678;-122.174;2023-04-22T02:17:45;11.00;99.90
16305;DHT22;8261;47.678;-122.174;2023-04-22T02:20:17;10.90;99.90
16305;DHT22;8261;47.678;-122.174;2023-04-22T02:22:48;10.90;99.90
16305;DHT22;8261;47.678;-122.174;2023-04-22T02:25:22;11.00;99.90
16305;DHT22;8261;47.678;-122.174;2023-04-22T02:27:54;11.10;99.90
16305;DHT22;8261;47.678;-122.174;2023-04-22T02:30:25;10.90;99.90
16305;DHT22;8261;47.678;-122.174;2023-04-22T02:32:57;10.80;99.90
16305;DHT22;8261;47.678;-122.174;2023-04-22T02:35:29;10.80;99.90
16305;DHT22;8261;47.678;-122.174;2023-04-22T02:38:00;10.80;99.90
16305;DHT22;8261;47.678;-122.174;2023-04-22T02:40:34;10.80;99.90
16305;DHT22;8261;47.678;-122.174;2023-04-22T02:43:05;10.80;99.90
16305;DHT22;8261;47.678;-122.174;2023-04-22T02:45:36;10.80;99.90
16305;DHT22;8261;47.678;-122.174;2023-04-22T02:48:08;10.80;99.90
16305;DHT22;8261;47.678;-122.174;2023-04-22T02:50:39;10.70;99.90
16305;DHT22;8261;47.678;-122.174;2023-04-22T02:53:11;10.70;99.90
16305;DHT22;8261;47.678;-122.174;2023-04-22T02:55:44;10.60;99.90
16305;DHT22;8261;47.678;-122.174;2023-04-22T02:58:16;10.50;99.90
16305;DHT22;8261;47.678;-122.174;2023-04-22T03:00:47;10.60;99.90
16305;DHT22;8261;47.678;-122.174;2023-04-22T03:03:19;10.50;99.90
16305;DHT22;8261;47.678;-122.174;2023-04-22T03:05:51;10.40;99.90
16305;DHT22;8261;47.678;-122.174;2023-04-22T03:08:22;10.40;99.90
16305;DHT22;8261;47.678;-122.174;2023-04-22T03:10:55;10.40;99.90
16305;DHT22;8261;47.678;-122.174;2023-04-22T03:13:26;10.30;99.90
16305;DHT22;8261;47.678;-122.174;2023-04-22T03:15:57;10.30;99.90
16305;DHT22;8261;47.678;-122.174;2023-04-22T03:18:28;10.30;99.90
16305;DHT22;8261;47.678;-122.174;2023-04-22T03:20:59;10.20;99.90
16305;DHT22;8261;47.678;-122.174;2023-04-22T03:23:32;10.10;99.90
16305;DHT22;8261;47.678;-122.174;2023-04-22T03:26:05;10.00;99.90
16305;DHT22;8261;47.678;-122.174;2023-04-22T03:28:37;10.00;99.90
16305;DHT22;8261;47.678;-122.174;2023-04-22T03:31:08;9.90;99.90
16305;DHT22;8261;47.678;-122.174;2023-04-22T03:33:40;9.90;99.90
16305;DHT22;8261;47.678;-122.174;2023-04-22T03:36:11;9.70;99.90
16305;DHT22;8261;47.678;-122.174;2023-04-22T03:38:42;9.70;99.90
16305;DHT22;8261;47.678;-122.174;2023-04-22T03:41:16;9.60;99.90
16305;DHT22;8261;47.678;-122.174;2023-04-22T03:43:47;9.60;99.90
16305;DHT22;8261;47.678;-122.174;2023-04-22T03:46:19;9.60;99.90
16305;DHT22;8261;47.678;-122.174;2023-04-22T03:48:50;9.50;99.90
16305;DHT22;8261;47.678;-122.174;2023-04-22T03:51:21;9.40;99.90
16305;DHT22;8261;47.678;-122.174;2023-04-22T03:53:52;9.40;99.90
16305;DHT22;8261;47.678;-122.174;2023-04-22T03:56:25;9.40;99.90
16305;DHT22;8261;47.678;-122.174;2023-04-22T03:58:57;9.40;99.90
16305;DHT22;8261;47.678;-122.174;2023-04-22T04:01:29;9.40;99.90
16305;DHT22;8261;47.678;-122.174;2023-04-22T04:04:00;9.40;99.90
16305;DHT22;8261;47.678;-122.174;2023-04-22T04:06:32;9.30;99.90
16305;DHT22;8261;47.678;-122.174;2023-04-22T04:09:04;9.30;99.90
16305;DHT22;8261;47.678;-122.174;2023-04-22T04:11:37;9.30;99.90
16305;DHT22;8261;47.678;-122.174;2023-04-22T04:14:09;9.30;99.90
16305;DHT22;8261;47.678;-122.174;2023-04-22T04:16:41;9.30;99.90
16305;DHT22;8261;47.678;-122.174;2023-04-22T04:19:12;9.30;99.90
16305;DHT22;8261;47.678;-122.174;2023-04-22T04:21:43;9.40;99.90
16305;DHT22;8261;47.678;-122.174;2023-04-22T04:24:14;9.30;99.90
16305;DHT22;8261;47.678;-122.174;2023-04-22T04:26:48;9.30;99.90
16305;DHT22;8261;47.678;-122.174;2023-04-22T04:29:21;9.30;99.90
16305;DHT22;8261;47.678;-122.174;2023-04-22T04:31:53;9.30;99.90
16305;DHT22;8261;47.678;-122.174;2023-04-22T04:34:25;9.30;99.90
16305;DHT22;8261;47.678;-122.174;2023-04-22T04:36:56;9.20;99.90
16305;DHT22;8261;47.678;-122.174;2023-04-22T04:39:28;9.20;99.90
16305;DHT22;8261;47.678;-122.174;2023-04-22T04:42:03;9.20;99.90
16305;DHT22;8261;47.678;-122.174;2023-04-22T04:44:34;9.20;99.90
16305;DHT22;8261;47.678;-122.174;2023-04-22T04:47:05;9.20;99.90
16305;DHT22;8261;47.678;-122.174;2023-04-22T04:49:37;9.10;99.90
16305;DHT22;8261;47.678;-122.174;2023-04-22T04:52:09;9.10;99.90
16305;DHT22;8261;47.678;-122.174;2023-04-22T04:54:41;9.10;99.90
16305;DHT22;8261;47.678;-122.174;2023-04-22T04:57:14;9.10;99.90
16305;DHT22;8261;47.678;-122.174;2023-04-22T04:59:45;9.10;99.90
16305;DHT22;8261;47.678;-122.174;2023-04-22T05:02:16;9.10;99.90
16305;DHT22;8261;47.678;-122.174;2023-04-22T05:04:48;9.10;99.90
16305;DHT22;8261;47.678;-122.174;2023-04-22T05:07:20;9.10;99.90
16305;DHT22;8261;47.678;-122.174;2023-04-22T05:09:51;9.10;99.90
16305;DHT22;8261;47.678;-122.174;2023-04-22T05:12:24;9.10;99.90
16305;DHT22;8261;47.678;-122.174;2023-04-22T05:14:56;9.10;99.90
16305;DHT22;8261;47.678;-122.174;2023-04-22T05:17:27;9.10;99.90
16305;DHT22;8261;47.678;-122.174;2023-04-22T05:19:59;9.20;99.90
16305;DHT22;8261;47.678;-122.174;2023-04-22T05:22:30;9.20;99.90
16305;DHT22;8261;47.678;-122.174;2023-04-22T05:25:01;9.30;99.90
16305;DHT22;8261;47.678;-122.174;2023-04-22T05:27:35;9.20;99.90
16305;DHT22;8261;47.678;-122.174;2023-04-22T05:30:07;9.20;99.90
16305;DHT22;8261;47.678;-122.174;2023-04-22T05:32:38;9.30;99.90
16305;DHT22;8261;47.678;-122.174;2023-04-22T05:35:10;9.20;99.90
16305;DHT22;8261;47.678;-122.174;2023-04-22T05:37:42;9.20;99.90
16305;DHT22;8261;47.678;-122.174;2023-04-22T05:40:13;9.20;99.90
16305;DHT22;8261;47.678;-122.174;2023-04-22T05:42:46;9.20;99.90
16305;DHT22;8261;47.678;-122.174;2023-04-22T05:45:18;9.20;99.90
16305;DHT22;8261;47.678;-122.174;2023-04-22T05:47:50;9.10;99.90
16305;DHT22;8261;47.678;-122.174;2023-04-22T05:50:22;9.10;99.90
16305;DHT22;8261;47.678;-122.174;2023-04-22T05:52:53;9.00;99.90
16305;DHT22;8261;47.678;-122.174;2023-04-22T05:55:24;9.10;99.90
16305;DHT22;8261;47.678;-122.174;2023-04-22T05:57:58;9.00;99.90
16305;DHT22;8261;47.678;-122.174;2023-04-22T06:00:30;9.00;99.90
16305;DHT22;8261;47.678;-122.174;2023-04-22T06:03:01;9.00;99.90
16305;DHT22;8261;47.678;-122.174;2023-04-22T06:05:33;8.90;99.90
16305;DHT22;8261;47.678;-122.174;2023-04-22T06:08:04;8.90;99.90
16305;DHT22;8261;47.678;-122.174;2023-04-22T06:10:36;8.90;99.90
16305;DHT22;8261;47.678;-122.174;2023-04-22T06:13:09;8.90;99.90
16305;DHT22;8261;47.678;-122.174;2023-04-22T06:15:40;8.90;99.90
16305;DHT22;8261;47.678;-122.174;2023-04-22T06:18:11;8.90;99.90
16305;DHT22;8261;47.678;-122.174;2023-04-22T06:20:43;8.90;99.90
16305;DHT22;8261;47.678;-122.174;2023-04-22T06:23:14;8.90;99.90
16305;DHT22;8261;47.678;-122.174;2023-04-22T06:25:45;8.90;99.90
16305;DHT22;8261;47.678;-122.174;2023-04-22T06:28:18;8.90;99.90
16305;DHT22;8261;47.678;-122.174;2023-04-22T06:30:49;8.90;99.90
16305;DHT22;8261;47.678;-122.174;2023-04-22T06:33:21;8.90;99.90
16305;DHT22;8261;47.678;-122.174;2023-04-22T06:35:52;8.90;99.90
16305;DHT22;8261;47.678;-122.174;2023-04-22T06:38:24;8.80;99.90
16305;DHT22;8261;47.678;-122.174;2023-04-22T06:40:55;8.80;99.90
16305;DHT22;8261;47.678;-122.174;2023-04-22T06:43:29;8.80;99.90
16305;DHT22;8261;47.678;-122.174;2023-04-22T06:46:01;8.80;99.90
16305;DHT22;8261;47.678;-122.174;2023-04-22T06:48:32;8.80;99.90
16305;DHT22;8261;47.678;-122.174;2023-04-22T06:51:04;8.70;99.90
16305;DHT22;8261;47.678;-122.174;2023-04-22T06:53:35;8.70;99.90
16305;DHT22;8261;47.678;-122.174;2023-04-22T06:56:06;8.80;99.90
16305;DHT22;8261;47.678;-122.174;2023-04-22T06:58:40;8.70;99.90
16305;DHT22;8261;47.678;-122.174;2023-04-22T07:01:11;8.70;99.90
16305;DHT22;8261;47.678;-122.174;2023-04-22T07:03:42;8.70;99.90
16305;DHT22;8261;47.678;-122.174;2023-04-22T07:06:15;8.70;99.90
16305;DHT22;8261;47.678;-122.174;2023-04-22T07:08:46;8.70;99.90
16305;DHT22;8261;47.678;-122.174;2023-04-22T07:11:17;8.70;99.90
16305;DHT22;8261;47.678;-122.174;2023-04-22T07:13:51;8.60;99.90
16305;DHT22;8261;47.678;-122.174;2023-04-22T07:16:22;8.60;99.90
16305;DHT22;8261;47.678;-122.174;2023-04-22T07:18:54;8.60;99.90
16305;DHT22;8261;47.678;-122.174;2023-04-22T07:21:27;8.60;99.90
16305;DHT22;8261;47.678;-122.174;2023-04-22T07:23:59;8.60;99.90
16305;DHT22;8261;47.678;-122.174;2023-04-22T07:26:30;8.50;99.90
16305;DHT22;8261;47.678;-122.174;2023-04-22T07:29:04;8.50;99.90
16305;DHT22;8261;47.678;-122.174;2023-04-22T07:31:35;8.50;99.90
16305;DHT22;8261;47.678;-122.174;2023-04-22T07:34:07;8.50;99.90
16305;DHT22;8261;47.678;-122.174;2023-04-22T07:36:39;8.50;99.90
16305;DHT22;8261;47.678;-122.174;2023-04-22T07:39:11;8.40;99.90
16305;DHT22;8261;47.678;-122.174;2023-04-22T07:41:43;8.40;99.90
16305;DHT22;8261;47.678;-122.174;2023-04-22T07:44:16;8.40;99.90
16305;DHT22;8261;47.678;-122.174;2023-04-22T07:46:49;8.40;99.90
16305;DHT22;8261;47.678;-122.174;2023-04-22T07:49:20;8.30;99.90
16305;DHT22;8261;47.678;-122.174;2023-04-22T07:51:52;8.30;99.90
16305;DHT22;8261;47.678;-122.174;2023-04-22T07:54:23;8.30;99.90
16305;DHT22;8261;47.678;-122.174;2023-04-22T07:56:54;8.30;99.90
16305;DHT22;8261;47.678;-122.174;2023-04-22T07:59:28;8.30;99.90
16305;DHT22;8261;47.678;-122.174;2023-04-22T08:01:59;8.30;99.90
16305;DHT22;8261;47.678;-122.174;2023-04-22T08:04:31;8.20;99.90
16305;DHT22;8261;47.678;-122.174;2023-04-22T08:07:02;8.20;99.90
16305;DHT22;8261;47.678;-122.174;2023-04-22T08:09:54;8.20;99.90
16305;DHT22;8261;47.678;-122.174;2023-04-22T08:12:25;8.20;99.90
16305;DHT22;8261;47.678;-122.174;2023-04-22T08:14:58;8.10;99.90
16305;DHT22;8261;47.678;-122.174;2023-04-22T08:17:29;8.10;99.90
16305;DHT22;8261;47.678;-122.174;2023-04-22T08:20:01;8.10;99.90
16305;DHT22;8261;47.678;-122.174;2023-04-22T08:22:35;8.10;99.90
16305;DHT22;8261;47.678;-122.174;2023-04-22T08:25:07;8.00;99.90
16305;DHT22;8261;47.678;-122.174;2023-04-22T08:27:39;8.00;99.90
16305;DHT22;8261;47.678;-122.174;2023-04-22T08:30:12;8.00;99.90
16305;DHT22;8261;47.678;-122.174;2023-04-22T08:32:43;8.00;99.90
16305;DHT22;8261;47.678;-122.174;2023-04-22T08:35:15;8.00;99.90
16305;DHT22;8261;47.678;-122.174;2023-04-22T08:37:46;7.90;99.90
16305;DHT22;8261;47.678;-122.174;2023-04-22T08:40:17;7.90;99.90
16305;DHT22;8261;47.678;-122.174;2023-04-22T08:42:49;7.90;99.90
16305;DHT22;8261;47.678;-122.174;2023-04-22T08:45:23;7.90;99.90
16305;DHT22;8261;47.678;-122.174;2023-04-22T08:47:55;7.90;99.90
16305;DHT22;8261;47.678;-122.174;2023-04-22T08:50:28;7.90;99.90
16305;DHT22;8261;47.678;-122.174;2023-04-22T08:53:00;7.90;99.90
16305;DHT22;8261;47.678;-122.174;2023-04-22T08:55:31;7.90;99.90
16305;DHT22;8261;47.678;-122.174;2023-04-22T08:58:04;7.90;99.90
16305;DHT22;8261;47.678;-122.174;2023-04-22T09:00:40;7.90;99.90
16305;DHT22;8261;47.678;-122.174;2023-04-22T09:03:13;7.90;99.90
16305;DHT22;8261;47.678;-122.174;2023-04-22T09:05:46;7.90;99.90
16305;DHT22;8261;47.678;-122.174;2023-04-22T09:08:19;7.90;99.90
16305;DHT22;8261;47.678;-122.174;2023-04-22T09:10:50;7.90;99.90
16305;DHT22;8261;47.678;-122.174;2023-04-22T09:13:22;8.00;99.90
16305;DHT22;8261;47.678;-122.174;2023-04-22T09:15:56;8.00;99.90
16305;DHT22;8261;47.678;-122.174;2023-04-22T09:18:27;8.00;99.90
16305;DHT22;8261;47.678;-122.174;2023-04-22T09:20:58;7.90;99.90
16305;DHT22;8261;47.678;-122.174;2023-04-22T09:23:30;8.00;99.90
16305;DHT22;8261;47.678;-122.174;2023-04-22T09:26:02;8.00;99.90
16305;DHT22;8261;47.678;-122.174;2023-04-22T09:28:36;8.00;99.90
16305;DHT22;8261;47.678;-122.174;2023-04-22T09:31:13;8.00;99.90
16305;DHT22;8261;47.678;-122.174;2023-04-22T09:33:52;8.00;99.90
16305;DHT22;8261;47.678;-122.174;2023-04-22T09:36:26;8.00;99.90
16305;DHT22;8261;47.678;-122.174;2023-04-22T09:38:58;8.00;99.90
16305;DHT22;8261;47.678;-122.174;2023-04-22T09:41:30;8.00;99.90
16305;DHT22;8261;47.678;-122.174;2023-04-22T09:44:03;8.00;99.90
16305;DHT22;8261;47.678;-122.174;2023-04-22T09:46:37;8.00;99.90
16305;DHT22;8261;47.678;-122.174;2023-04-22T09:49:11;8.00;99.90
16305;DHT22;8261;47.678;-122.174;2023-04-22T09:51:45;8.00;99.90
16305;DHT22;8261;47.678;-122.174;2023-04-22T09:54:17;8.00;99.90
16305;DHT22;8261;47.678;-122.174;2023-04-22T09:56:49;8.10;99.90
16305;DHT22;8261;47.678;-122.174;2023-04-22T09:59:21;8.10;99.90
16305;DHT22;8261;47.678;-122.174;2023-04-22T10:01:57;8.00;99.90
16305;DHT22;8261;47.678;-122.174;2023-04-22T10:04:29;8.00;99.90
16305;DHT22;8261;47.678;-122.174;2023-04-22T10:07:00;7.90;99.90
16305;DHT22;8261;47.678;-122.174;2023-04-22T10:09:32;7.90;99.90
16305;DHT22;8261;47.678;-122.174;2023-04-22T10:12:05;7.90;99.90
16305;DHT22;8261;47.678;-122.174;2023-04-22T10:14:36;7.90;99.90
16305;DHT22;8261;47.678;-122.174;2023-04-22T10:17:10;7.90;99.90
16305;DHT22;8261;47.678;-122.174;2023-04-22T10:19:44;7.90;99.90
16305;DHT22;8261;47.678;-122.174;2023-04-22T10:22:16;7.90;99.90
16305;DHT22;8261;47.678;-122.174;2023-04-22T10:24:47;7.90;99.90
16305;DHT22;8261;47.678;-122.174;2023-04-22T10:27:23;7.90;99.90
16305;DHT22;8261;47.678;-122.174;2023-04-22T10:29:56;7.90;99.90
16305;DHT22;8261;47.678;-122.174;2023-04-22T10:32:29;8.00;99.90
16305;DHT22;8261;47.678;-122.174;2023-04-22T10:35:08;8.00;99.90
16305;DHT22;8261;47.678;-122.174;2023-04-22T10:37:43;7.90;99.90
16305;DHT22;8261;47.678;-122.174;2023-04-22T10:40:17;7.90;99.90
16305;DHT22;8261;47.678;-122.174;2023-04-22T10:42:51;8.00;99.90
16305;DHT22;8261;47.678;-122.174;2023-04-22T10:45:24;8.00;99.90
16305;DHT22;8261;47.678;-122.174;2023-04-22T10:48:02;8.00;99.90
16305;DHT22;8261;47.678;-122.174;2023-04-22T10:50:34;8.00;99.90
16305;DHT22;8261;47.678;-122.174;2023-04-22T10:53:35;7.90;99.90
16305;DHT22;8261;47.678;-122.174;2023-04-22T10:56:16;7.90;99.90
16305;DHT22;8261;47.678;-122.174;2023-04-22T10:58:49;8.00;99.90
16305;DHT22;8261;47.678;-122.174;2023-04-22T11:01:20;8.00;99.90
16305;DHT22;8261;47.678;-122.174;2023-04-22T11:03:54;8.00;99.90
16305;DHT22;8261;47.678;-122.174;2023-04-22T11:06:45;8.10;99.90
16305;DHT22;8261;47.678;-122.174;2023-04-22T11:09:17;8.00;99.90
16305;DHT22;8261;47.678;-122.174;2023-04-22T11:11:49;8.00;99.90
16305;DHT22;8261;47.678;-122.174;2023-04-22T11:14:21;8.10;99.90
16305;DHT22;8261;47.678;-122.174;2023-04-22T11:16:52;8.10;99.90
16305;DHT22;8261;47.678;-122.174;2023-04-22T11:19:27;8.00;99.90
16305;DHT22;8261;47.678;-122.174;2023-04-22T11:21:59;7.90;99.90
16305;DHT22;8261;47.678;-122.174;2023-04-22T11:24:30;8.00;99.90
16305;DHT22;8261;47.678;-122.174;2023-04-22T11:27:01;7.90;99.90
16305;DHT22;8261;47.678;-122.174;2023-04-22T11:29:32;8.00;99.90
16305;DHT22;8261;47.678;-122.174;2023-04-22T11:32:04;8.00;99.90
16305;DHT22;8261;47.678;-122.174;2023-04-22T11:34:37;7.90;99.90
16305;DHT22;8261;47.678;-122.174;2023-04-22T11:37:08;7.90;99.90
16305;DHT22;8261;47.678;-122.174;2023-04-22T11:39:40;8.00;99.90
16305;DHT22;8261;47.678;-122.174;2023-04-22T11:42:31;8.00;99.90
16305;DHT22;8261;47.678;-122.174;2023-04-22T11:45:06;8.00;99.90
16305;DHT22;8261;47.678;-122.174;2023-04-22T11:47:37;8.00;99.90
16305;DHT22;8261;47.678;-122.174;2023-04-22T11:50:12;8.00;99.90
16305;DHT22;8261;47.678;-122.174;2023-04-22T11:52:45;7.90;99.90
16305;DHT22;8261;47.678;-122.174;2023-04-22T11:55:19;7.90;99.90
16305;DHT22;8261;47.678;-122.174;2023-04-22T11:57:55;7.90;99.90
16305;DHT22;8261;47.678;-122.174;2023-04-22T12:00:30;8.00;99.90
16305;DHT22;8261;47.678;-122.174;2023-04-22T12:03:03;8.00;99.90
16305;DHT22;8261;47.678;-122.174;2023-04-22T12:05:39;8.00;99.90
16305;DHT22;8261;47.678;-122.174;2023-04-22T12:08:11;8.00;99.90
16305;DHT22;8261;47.678;-122.174;2023-04-22T12:10:44;8.00;99.90
16305;DHT22;8261;47.678;-122.174;2023-04-22T12:13:20;7.90;99.90
16305;DHT22;8261;47.678;-122.174;2023-04-22T12:15:54;8.00;99.90
16305;DHT22;8261;47.678;-122.174;2023-04-22T12:18:29;8.00;99.90
16305;DHT22;8261;47.678;-122.174;2023-04-22T12:21:08;7.90;99.90
16305;DHT22;8261;47.678;-122.174;2023-04-22T12:23:43;7.90;99.90
16305;DHT22;8261;47.678;-122.174;2023-04-22T12:26:16;7.90;99.90
16305;DHT22;8261;47.678;-122.174;2023-04-22T12:28:47;8.00;99.90
16305;DHT22;8261;47.678;-122.174;2023-04-22T12:31:18;8.00;99.90
16305;DHT22;8261;47.678;-122.174;2023-04-22T12:33:50;8.00;99.90
16305;DHT22;8261;47.678;-122.174;2023-04-22T12:36:23;8.00;99.90
16305;DHT22;8261;47.678;-122.174;2023-04-22T12:38:54;7.90;99.90
16305;DHT22;8261;47.678;-122.174;2023-04-22T12:41:25;7.90;99.90
16305;DHT22;8261;47.678;-122.174;2023-04-22T12:43:56;7.90;99.90
16305;DHT22;8261;47.678;-122.174;2023-04-22T12:46:28;7.90;99.90
16305;DHT22;8261;47.678;-122.174;2023-04-22T12:49:00;7.90;99.90
16305;DHT22;8261;47.678;-122.174;2023-04-22T12:51:33;7.90;99.90
16305;DHT22;8261;47.678;-122.174;2023-04-22T12:54:05;7.90;99.90
16305;DHT22;8261;47.678;-122.174;2023-04-22T12:56:36;7.90;99.90
16305;DHT22;8261;47.678;-122.174;2023-04-22T12:59:08;8.00;99.90
16305;DHT22;8261;47.678;-122.174;2023-04-22T13:01:39;7.90;99.90
16305;DHT22;8261;47.678;-122.174;2023-04-22T13:04:10;7.90;99.90
16305;DHT22;8261;47.678;-122.174;2023-04-22T13:06:44;7.90;99.90
16305;DHT22;8261;47.678;-122.174;2023-04-22T13:09:15;8.00;99.90
16305;DHT22;8261;47.678;-122.174;2023-04-22T13:11:46;8.00;99.90
16305;DHT22;8261;47.678;-122.174;2023-04-22T13:14:18;8.00;99.90
16305;DHT22;8261;47.678;-122.174;2023-04-22T13:16:49;7.90;99.90
16305;DHT22;8261;47.678;-122.174;2023-04-22T13:19:20;8.00;99.90
16305;DHT22;8261;47.678;-122.174;2023-04-22T13:21:55;7.90;99.90
16305;DHT22;8261;47.678;-122.174;2023-04-22T13:24:28;7.90;99.90
16305;DHT22;8261;47.678;-122.174;2023-04-22T13:26:59;7.90;99.90
16305;DHT22;8261;47.678;-122.174;2023-04-22T13:29:30;7.80;99.90
16305;DHT22;8261;47.678;-122.174;2023-04-22T13:32:02;7.80;99.90
16305;DHT22;8261;47.678;-122.174;2023-04-22T13:34:34;7.80;99.90
16305;DHT22;8261;47.678;-122.174;2023-04-22T13:37:07;7.80;99.90
16305;DHT22;8261;47.678;-122.174;2023-04-22T13:39:38;7.80;99.90
16305;DHT22;8261;47.678;-122.174;2023-04-22T13:42:10;7.90;99.90
16305;DHT22;8261;47.678;-122.174;2023-04-22T13:44:41;7.80;99.90
16305;DHT22;8261;47.678;-122.174;2023-04-22T13:47:13;7.90;99.90
16305;DHT22;8261;47.678;-122.174;2023-04-22T13:49:44;8.00;99.90
16305;DHT22;8261;47.678;-122.174;2023-04-22T13:52:17;8.10;99.90
16305;DHT22;8261;47.678;-122.174;2023-04-22T13:54:48;8.10;99.90
16305;DHT22;8261;47.678;-122.174;2023-04-22T13:57:20;8.10;99.90
16305;DHT22;8261;47.678;-122.174;2023-04-22T13:59:51;8.10;99.90
16305;DHT22;8261;47.678;-122.174;2023-04-22T14:02:22;8.10;99.90
16305;DHT22;8261;47.678;-122.174;2023-04-22T14:04:54;8.10;99.90
16305;DHT22;8261;47.678;-122.174;2023-04-22T14:07:29;8.10;99.90
16305;DHT22;8261;47.678;-122.174;2023-04-22T14:10:01;8.10;99.90
16305;DHT22;8261;47.678;-122.174;2023-04-22T14:12:32;8.10;99.90
16305;DHT22;8261;47.678;-122.174;2023-04-22T14:15:03;8.10;99.90
16305;DHT22;8261;47.678;-122.174;2023-04-22T14:17:38;8.10;99.90
16305;DHT22;8261;47.678;-122.174;2023-04-22T14:20:10;8.20;99.90
16305;DHT22;8261;47.678;-122.174;2023-04-22T14:22:43;8.20;99.90
16305;DHT22;8261;47.678;-122.174;2023-04-22T14:25:14;8.30;99.90
16305;DHT22;8261;47.678;-122.174;2023-04-22T14:27:46;8.30;99.90
16305;DHT22;8261;47.678;-122.174;2023-04-22T14:30:18;8.30;99.90
16305;DHT22;8261;47.678;-122.174;2023-04-22T14:32:49;8.40;99.90
16305;DHT22;8261;47.678;-122.174;2023-04-22T14:35:21;8.40;99.90
16305;DHT22;8261;47.678;-122.174;2023-04-22T14:37:55;8.40;99.90
16305;DHT22;8261;47.678;-122.174;2023-04-22T14:40:26;8.50;99.90
16305;DHT22;8261;47.678;-122.174;2023-04-22T14:42:58;8.60;99.90
16305;DHT22;8261;47.678;-122.174;2023-04-22T14:45:30;8.50;99.90
16305;DHT22;8261;47.678;-122.174;2023-04-22T14:48:02;8.50;99.90
16305;DHT22;8261;47.678;-122.174;2023-04-22T14:50:33;8.40;99.90
16305;DHT22;8261;47.678;-122.174;2023-04-22T14:53:06;8.50;99.90
16305;DHT22;8261;47.678;-122.174;2023-04-22T14:55:38;8.60;99.90
16305;DHT22;8261;47.678;-122.174;2023-04-22T14:58:09;8.80;99.90
16305;DHT22;8261;47.678;-122.174;2023-04-22T15:00:40;8.80;99.90
16305;DHT22;8261;47.678;-122.174;2023-04-22T15:03:12;8.90;99.90
16305;DHT22;8261;47.678;-122.174;2023-04-22T15:05:43;9.00;99.90
16305;DHT22;8261;47.678;-122.174;2023-04-22T15:08:19;9.00;99.90
16305;DHT22;8261;47.678;-122.174;2023-04-22T15:10:52;9.20;99.90
16305;DHT22;8261;47.678;-122.174;2023-04-22T15:13:23;9.30;99.90
16305;DHT22;8261;47.678;-122.174;2023-04-22T15:15:55;9.40;99.90
16305;DHT22;8261;47.678;-122.174;2023-04-22T15:18:27;9.50;99.90
16305;DHT22;8261;47.678;-122.174;2023-04-22T15:20:59;9.40;99.90
16305;DHT22;8261;47.678;-122.174;2023-04-22T15:23:32;9.30;99.90
16305;DHT22;8261;47.678;-122.174;2023-04-22T15:26:04;9.40;99.90
16305;DHT22;8261;47.678;-122.174;2023-04-22T15:28:35;9.40;99.90
16305;DHT22;8261;47.678;-122.174;2023-04-22T15:31:06;9.40;99.90
16305;DHT22;8261;47.678;-122.174;2023-04-22T15:33:37;9.50;99.90
16305;DHT22;8261;47.678;-122.174;2023-04-22T15:36:09;9.60;99.90
16305;DHT22;8261;47.678;-122.174;2023-04-22T15:38:42;9.60;99.90
16305;DHT22;8261;47.678;-122.174;2023-04-22T15:41:14;9.70;99.90
16305;DHT22;8261;47.678;-122.174;2023-04-22T15:43:46;9.80;99.90